Cape Lambert — V7TC9 — position and weather

sailwx.info

Track history (hours):
 
Tides and Currents Weather Stations Pressure Air Temp Water Temp Dewpoint Dewpoint Depression Visibility Wind Speed Wind Dir Waves Ship Positions

Cape Lambert

Last reported at 2016-Aug-19 13:33 UTC. Time now 2016-Aug-25 18:30 UTC.
Position N 32°22' W 015°35'.

Length 290 m; draft 8.7 m.

Type: Cargo ship. MMSI: 538003781.

Date/timePositionNaut miles runAvg speedWind from/ knotsBaromVisibWave heightAir tempDewpointWater temp
2016-Aug-19 13:33N 32°22' W 015°35'9910.7
2016-Aug-19 04:19N 33°03' W 013°48'3210.6
2016-Aug-19 01:17N 33°17' W 013°13'810.4
2016-Aug-19 00:33N 33°20' W 013°05'3410.3
2016-Aug-18 21:14N 33°35' W 012°28'710.2
2016-Aug-18 20:32N 33°38' W 012°20'1410.3
2016-Aug-18 19:10N 33°43' W 012°05'910.4
2016-Aug-18 18:16N 33°47' W 011°55'810.4
2016-Aug-18 17:29N 33°50' W 011°45'8 8.2
2016-Aug-18 16:33N 33°54' W 011°38'1510.3
2016-Aug-18 15:04N 34°01' W 011°21'510.4
2016-Aug-18 14:33N 34°03' W 011°15'1010.3
2016-Aug-18 13:33N 34°07' W 011°04'1210.4
2016-Aug-18 12:26N 34°12' W 010°51'2410.6
2016-Aug-18 10:12N 34°22' W 010°25'1111.1
2016-Aug-18 09:12N 34°26' W 010°13'710.7
2016-Aug-18 08:33N 34°28' W 010°05'1210.6
2016-Aug-18 07:26N 34°33' W 009°51'9 9.3
2016-Aug-18 06:29N 34°38' W 009°43'1010.3
2016-Aug-18 05:29N 34°43' W 009°32'3010.2
2016-Aug-18 02:31N 34°55' W 008°58'2210.3
2016-Aug-18 00:21N 35°05' W 008°34'910.6
2016-Aug-17 23:31N 35°09' W 008°24'1110.4
2016-Aug-17 22:26N 35°13' W 008°11'3010.3
2016-Aug-17 19:33N 35°26' W 007°38'1410.3
2016-Aug-17 18:10N 35°32' W 007°22'610.2
2016-Aug-17 17:33N 35°34' W 007°15'1010.0
2016-Aug-17 16:32N 35°39' W 007°04'1010.0
2016-Aug-17 15:33N 35°43' W 006°53'0 0.2
2016-Aug-17 14:33N 35°43' W 006°53'1 1.2
2016-Aug-17 13:32N 35°43' W 006°54'1 0.9
2016-Aug-17 12:31N 35°43' W 006°55'4 1.4
2016-Aug-17 09:33N 35°44' W 007°00'2 1.4
2016-Aug-17 08:15N 35°45' W 007°03'2 1.2
2016-Aug-17 06:18N 35°45' W 007°05'2 1.0
2016-Aug-17 04:33N 35°45' W 007°07'1 0.5
2016-Aug-17 02:26N 35°46' W 007°09'1 0.2
2016-Aug-16 23:32N 35°46' W 007°08'1 0.6
2016-Aug-16 21:32N 35°47' W 007°07'28 6.6
2016-Aug-16 17:20N 35°53' W 006°34'16 2.7
2016-Aug-16 11:15N 35°58' W 006°14'1911.4
2016-Aug-16 09:33N 35°58' W 005°50'1212.3
2016-Aug-16 08:33N 35°58' W 005°35'1211.8
2016-Aug-16 07:33N 36°01' W 005°21'1111.0
2016-Aug-16 06:33N 36°03' W 005°08'137 9.7
2016-Aug-15 16:26N 36°25' W 002°21'1311.1
2016-Aug-15 15:16N 36°27' W 002°04'1911.0
2016-Aug-15 13:30N 36°29' W 001°41'2211.1
2016-Aug-15 11:33N 36°33' W 001°14'2711.0
2016-Aug-15 09:05N 36°38' W 000°41'811.7
2016-Aug-15 08:22N 36°39' W 000°31'2110.2
2016-Aug-15 06:18N 36°42' W 000°05'1810.1
2016-Aug-15 04:30N 36°45' E 000°18'2010.3
2016-Aug-15 02:33N 36°48' E 000°43'1111.1
2016-Aug-15 01:33N 36°50' E 000°56'1111.2
2016-Aug-15 00:32N 36°51' E 001°10'1510.8
2016-Aug-14 23:11N 36°54' E 001°28'2111.5
2016-Aug-14 21:23N 36°57' E 001°54'1210.9
2016-Aug-14 20:15N 36°59' E 002°09'4210.9
2016-Aug-14 16:25N 37°06' E 003°01'1110.6
2016-Aug-14 15:21N 37°07' E 003°15'810.6
2016-Aug-14 14:34N 37°09' E 003°25'2510.9
2016-Aug-14 12:14N 37°13' E 003°57'811.2
2016-Aug-14 11:33N 37°14' E 004°06'1110.9
2016-Aug-14 10:33N 37°15' E 004°20'1110.9
2016-Aug-14 09:33N 37°16' E 004°33'1411.0
2016-Aug-14 08:19N 37°18' E 004°50'2011.1
2016-Aug-14 06:31N 37°21' E 005°15'33610.2
2016-Aug-12 21:31N 37°03' E 012°17'10 9.9
2016-Aug-12 20:33N 36°60' E 012°28'1010.0
2016-Aug-12 19:33N 36°56' E 012°40'10 9.5
2016-Aug-12 18:33N 36°53' E 012°51'9 9.0
2016-Aug-12 17:33N 36°50' E 013°02'9 8.7
2016-Aug-12 16:33N 36°48' E 013°12'9 8.5
2016-Aug-12 15:33N 36°45' E 013°22'8 8.3
2016-Aug-12 14:33N 36°43' E 013°32'8 8.3
2016-Aug-12 13:33N 36°40' E 013°42'8 8.3
2016-Aug-12 12:33N 36°37' E 013°52'9 8.9
2016-Aug-12 11:33N 36°34' E 014°02'9 9.5
2016-Aug-12 10:33N 36°32' E 014°13'10 9.8
2016-Aug-12 09:33N 36°29' E 014°25'1010.2
2016-Aug-12 08:33N 36°25' E 014°37'1010.4
2016-Aug-12 07:33N 36°25' E 014°50'9712.2
2016-Aug-11 23:33N 36°05' E 016°48'5111.7
2016-Aug-11 19:12N 35°52' E 017°49'2012.0
2016-Aug-11 17:33N 35°47' E 018°13'1211.7
2016-Aug-11 16:32N 35°44' E 018°27'2511.5
2016-Aug-11 14:20N 35°38' E 018°58'1011.5
2016-Aug-11 13:28N 35°36' E 019°09'1511.9
2016-Aug-11 12:13N 35°32' E 019°27'2111.9
2016-Aug-11 10:25N 35°27' E 019°53'3912.0
2016-Aug-11 07:11N 35°17' E 020°39'811.9
2016-Aug-11 06:31N 35°16' E 020°48'42611.1
2016-Aug-09 16:05N 35°18' E 029°30'  
Track history (hours):
 
Tides and Currents Weather Stations Pressure Air Temp Water Temp Dewpoint Dewpoint Depression Visibility Wind Speed Wind Dir Waves Ship Positions

Cape Lambert

Last reported at 2016-Aug-19 13:33 UTC. Time now 2016-Aug-25 18:30 UTC.
Position N 32°22' W 015°35'.

Length 290 m; draft 8.7 m.

Type: Cargo ship. MMSI: 538003781.

Date/timePositionNaut miles runAvg speedWind from/ knotsBaromVisibWave heightAir tempDewpointWater temp
2016-Aug-19 13:33N 32°22' W 015°35'9910.7
2016-Aug-19 04:19N 33°03' W 013°48'3210.6
2016-Aug-19 01:17N 33°17' W 013°13'810.4
2016-Aug-19 00:33N 33°20' W 013°05'3410.3
2016-Aug-18 21:14N 33°35' W 012°28'710.2
2016-Aug-18 20:32N 33°38' W 012°20'1410.3
2016-Aug-18 19:10N 33°43' W 012°05'910.4
2016-Aug-18 18:16N 33°47' W 011°55'810.4
2016-Aug-18 17:29N 33°50' W 011°45'8 8.2
2016-Aug-18 16:33N 33°54' W 011°38'1510.3
2016-Aug-18 15:04N 34°01' W 011°21'510.4
2016-Aug-18 14:33N 34°03' W 011°15'1010.3
2016-Aug-18 13:33N 34°07' W 011°04'1210.4
2016-Aug-18 12:26N 34°12' W 010°51'2410.6
2016-Aug-18 10:12N 34°22' W 010°25'1111.1
2016-Aug-18 09:12N 34°26' W 010°13'710.7
2016-Aug-18 08:33N 34°28' W 010°05'1210.6
2016-Aug-18 07:26N 34°33' W 009°51'9 9.3
2016-Aug-18 06:29N 34°38' W 009°43'1010.3
2016-Aug-18 05:29N 34°43' W 009°32'3010.2
2016-Aug-18 02:31N 34°55' W 008°58'2210.3
2016-Aug-18 00:21N 35°05' W 008°34'910.6
2016-Aug-17 23:31N 35°09' W 008°24'1110.4
2016-Aug-17 22:26N 35°13' W 008°11'3010.3
2016-Aug-17 19:33N 35°26' W 007°38'1410.3
2016-Aug-17 18:10N 35°32' W 007°22'610.2
2016-Aug-17 17:33N 35°34' W 007°15'1010.0
2016-Aug-17 16:32N 35°39' W 007°04'1010.0
2016-Aug-17 15:33N 35°43' W 006°53'0 0.2
2016-Aug-17 14:33N 35°43' W 006°53'1 1.2
2016-Aug-17 13:32N 35°43' W 006°54'1 0.9
2016-Aug-17 12:31N 35°43' W 006°55'4 1.4
2016-Aug-17 09:33N 35°44' W 007°00'2 1.4
2016-Aug-17 08:15N 35°45' W 007°03'2 1.2
2016-Aug-17 06:18N 35°45' W 007°05'2 1.0
2016-Aug-17 04:33N 35°45' W 007°07'1 0.5
2016-Aug-17 02:26N 35°46' W 007°09'1 0.2
2016-Aug-16 23:32N 35°46' W 007°08'1 0.6
2016-Aug-16 21:32N 35°47' W 007°07'28 6.6
2016-Aug-16 17:20N 35°53' W 006°34'16 2.7
2016-Aug-16 11:15N 35°58' W 006°14'1911.4
2016-Aug-16 09:33N 35°58' W 005°50'1212.3
2016-Aug-16 08:33N 35°58' W 005°35'1211.8
2016-Aug-16 07:33N 36°01' W 005°21'1111.0
2016-Aug-16 06:33N 36°03' W 005°08'137 9.7
2016-Aug-15 16:26N 36°25' W 002°21'1311.1
2016-Aug-15 15:16N 36°27' W 002°04'1911.0
2016-Aug-15 13:30N 36°29' W 001°41'2211.1
2016-Aug-15 11:33N 36°33' W 001°14'2711.0
2016-Aug-15 09:05N 36°38' W 000°41'811.7
2016-Aug-15 08:22N 36°39' W 000°31'2110.2
2016-Aug-15 06:18N 36°42' W 000°05'1810.1
2016-Aug-15 04:30N 36°45' E 000°18'2010.3
2016-Aug-15 02:33N 36°48' E 000°43'1111.1
2016-Aug-15 01:33N 36°50' E 000°56'1111.2
2016-Aug-15 00:32N 36°51' E 001°10'1510.8
2016-Aug-14 23:11N 36°54' E 001°28'2111.5
2016-Aug-14 21:23N 36°57' E 001°54'1210.9
2016-Aug-14 20:15N 36°59' E 002°09'4210.9
2016-Aug-14 16:25N 37°06' E 003°01'1110.6
2016-Aug-14 15:21N 37°07' E 003°15'810.6
2016-Aug-14 14:34N 37°09' E 003°25'2510.9
2016-Aug-14 12:14N 37°13' E 003°57'811.2
2016-Aug-14 11:33N 37°14' E 004°06'1110.9
2016-Aug-14 10:33N 37°15' E 004°20'1110.9
2016-Aug-14 09:33N 37°16' E 004°33'1411.0
2016-Aug-14 08:19N 37°18' E 004°50'2011.1
2016-Aug-14 06:31N 37°21' E 005°15'33610.2
2016-Aug-12 21:31N 37°03' E 012°17'10 9.9
2016-Aug-12 20:33N 36°60' E 012°28'1010.0
2016-Aug-12 19:33N 36°56' E 012°40'10 9.5
2016-Aug-12 18:33N 36°53' E 012°51'9 9.0
2016-Aug-12 17:33N 36°50' E 013°02'9 8.7
2016-Aug-12 16:33N 36°48' E 013°12'9 8.5
2016-Aug-12 15:33N 36°45' E 013°22'8 8.3
2016-Aug-12 14:33N 36°43' E 013°32'8 8.3
2016-Aug-12 13:33N 36°40' E 013°42'8 8.3
2016-Aug-12 12:33N 36°37' E 013°52'9 8.9
2016-Aug-12 11:33N 36°34' E 014°02'9 9.5
2016-Aug-12 10:33N 36°32' E 014°13'10 9.8
2016-Aug-12 09:33N 36°29' E 014°25'1010.2
2016-Aug-12 08:33N 36°25' E 014°37'1010.4
2016-Aug-12 07:33N 36°25' E 014°50'9712.2
2016-Aug-11 23:33N 36°05' E 016°48'5111.7
2016-Aug-11 19:12N 35°52' E 017°49'2012.0
2016-Aug-11 17:33N 35°47' E 018°13'1211.7
2016-Aug-11 16:32N 35°44' E 018°27'2511.5
2016-Aug-11 14:20N 35°38' E 018°58'1011.5
2016-Aug-11 13:28N 35°36' E 019°09'1511.9
2016-Aug-11 12:13N 35°32' E 019°27'2111.9
2016-Aug-11 10:25N 35°27' E 019°53'3912.0
2016-Aug-11 07:11N 35°17' E 020°39'811.9
2016-Aug-11 06:31N 35°16' E 020°48'42611.1
2016-Aug-09 16:05N 35°18' E 029°30'  

Dump ship's entire track history